createdAt,value
2023-02-16T00:00:12.758Z,1006.34
2023-02-16T00:01:12.746Z,1006.38
2023-02-16T00:02:12.786Z,1006.39
2023-02-16T00:03:12.744Z,1006.41
2023-02-16T00:04:12.704Z,1006.45
2023-02-16T00:05:12.695Z,1006.45
2023-02-16T00:06:12.681Z,1006.46
2023-02-16T00:07:12.669Z,1006.40
2023-02-16T00:08:12.662Z,1006.45
2023-02-16T00:09:12.678Z,1006.46
2023-02-16T00:10:12.631Z,1006.44
2023-02-16T00:11:12.620Z,1006.50
2023-02-16T00:12:12.605Z,1006.47
2023-02-16T00:13:12.593Z,1006.49
2023-02-16T00:14:12.580Z,1006.52
2023-02-16T00:15:12.568Z,1006.52
2023-02-16T00:16:12.613Z,1006.48
2023-02-16T00:17:12.553Z,1006.51
2023-02-16T00:18:12.554Z,1006.58
2023-02-16T00:19:12.519Z,1006.55
2023-02-16T00:20:12.506Z,1006.53
2023-02-16T00:21:12.495Z,1006.53
2023-02-16T00:22:12.489Z,1006.56
2023-02-16T00:23:12.468Z,1006.60
2023-02-16T00:24:12.457Z,1006.59
2023-02-16T00:25:12.444Z,1006.62
2023-02-16T00:26:12.427Z,1006.60
2023-02-16T00:27:12.418Z,1006.52
2023-02-16T00:28:12.405Z,1006.57
2023-02-16T00:29:12.392Z,1006.57
2023-02-16T00:30:12.436Z,1006.50
2023-02-16T00:31:12.448Z,1006.55
2023-02-16T00:32:12.550Z,1006.46
2023-02-16T00:33:12.345Z,1006.55
2023-02-16T00:34:12.352Z,1006.54
2023-02-16T00:35:12.324Z,1006.52
2023-02-16T00:36:12.308Z,1006.53
2023-02-16T00:37:12.300Z,1006.44
2023-02-16T00:38:12.290Z,1006.44
2023-02-16T00:39:12.271Z,1006.49
2023-02-16T00:40:12.255Z,1006.39
2023-02-16T00:41:12.244Z,1006.46
2023-02-16T00:42:12.243Z,1006.48
2023-02-16T00:43:12.220Z,1006.45
2023-02-16T00:44:12.242Z,1006.47
2023-02-16T00:45:12.193Z,1006.42
2023-02-16T00:46:12.240Z,1006.47
2023-02-16T00:47:12.170Z,1006.44
2023-02-16T00:48:12.152Z,1006.45
2023-02-16T00:49:12.146Z,1006.41
2023-02-16T00:50:12.158Z,1006.42
2023-02-16T00:51:25.172Z,1006.37
2023-02-16T00:52:12.107Z,1006.40
2023-02-16T00:53:12.096Z,1006.44
2023-02-16T00:54:12.079Z,1006.43
2023-02-16T00:55:12.069Z,1006.38
2023-02-16T00:56:12.056Z,1006.31
2023-02-16T00:57:12.044Z,1006.31
2023-02-16T00:59:12.020Z,1006.32
2023-02-16T01:00:12.014Z,1006.37
2023-02-16T01:01:12.031Z,1006.34
2023-02-16T01:02:11.978Z,1006.28
2023-02-16T01:03:11.972Z,1006.23
2023-02-16T01:04:12.079Z,1006.26
2023-02-16T01:05:11.939Z,1006.30
2023-02-16T01:06:11.954Z,1006.33
2023-02-16T01:07:11.914Z,1006.38
2023-02-16T01:08:11.900Z,1006.31
2023-02-16T01:09:11.888Z,1006.38
2023-02-16T01:10:11.873Z,1006.36
2023-02-16T01:11:11.862Z,1006.38
2023-02-16T01:12:11.849Z,1006.39
2023-02-16T01:13:11.834Z,1006.37
2023-02-16T01:14:11.821Z,1006.33
2023-02-16T01:15:11.809Z,1006.34
2023-02-16T01:16:11.820Z,1006.34
2023-02-16T01:17:11.784Z,1006.34
2023-02-16T01:18:11.770Z,1006.34
2023-02-16T01:19:11.763Z,1006.38
2023-02-16T01:20:11.745Z,1006.38
2023-02-16T01:21:11.733Z,1006.38
2023-02-16T01:22:11.742Z,1006.42
2023-02-16T01:23:11.711Z,1006.39
2023-02-16T01:24:11.693Z,1006.36
2023-02-16T01:25:11.684Z,1006.41
2023-02-16T01:26:11.670Z,1006.42
2023-02-16T01:27:11.656Z,1006.40
2023-02-16T01:28:11.642Z,1006.36
2023-02-16T01:29:11.630Z,1006.40
2023-02-16T01:30:11.642Z,1006.32
2023-02-16T01:31:11.729Z,1006.39
2023-02-16T01:32:11.804Z,1006.39
2023-02-16T01:33:11.579Z,1006.41
2023-02-16T01:34:11.590Z,1006.46
2023-02-16T01:35:11.556Z,1006.47
2023-02-16T01:36:11.546Z,1006.39
2023-02-16T01:37:11.537Z,1006.33
2023-02-16T01:38:11.553Z,1006.37
2023-02-16T01:39:11.505Z,1006.34
2023-02-16T01:40:11.489Z,1006.43
2023-02-16T01:41:11.480Z,1006.43
2023-02-16T01:42:11.467Z,1006.41
2023-02-16T01:43:11.454Z,1006.27
2023-02-16T01:44:11.452Z,1006.26
2023-02-16T01:45:11.431Z,1006.23
2023-02-16T01:46:11.463Z,1006.31
2023-02-16T01:47:11.408Z,1006.30
2023-02-16T01:48:11.391Z,1006.27
2023-02-16T01:49:11.381Z,1006.25
2023-02-16T01:50:11.366Z,1006.22
2023-02-16T01:51:11.353Z,1006.21
2023-02-16T01:52:11.341Z,1006.26
2023-02-16T01:53:11.329Z,1006.25
2023-02-16T01:54:11.406Z,1006.26
2023-02-16T01:55:11.303Z,1006.25
2023-02-16T01:56:11.289Z,1006.32
2023-02-16T01:57:11.278Z,1006.26
2023-02-16T01:58:11.264Z,1006.21
2023-02-16T01:59:11.253Z,1006.21
2023-02-16T02:00:11.237Z,1006.12
2023-02-16T02:01:11.227Z,1006.15
2023-02-16T02:02:11.213Z,1006.16
2023-02-16T02:03:11.282Z,1006.19
2023-02-16T02:04:11.196Z,1006.17
2023-02-16T02:05:11.176Z,1006.17
2023-02-16T02:06:11.165Z,1006.04
2023-02-16T02:07:11.150Z,1006.05
2023-02-16T02:08:11.138Z,1006.10
2023-02-16T02:09:11.126Z,1006.12
2023-02-16T02:10:11.138Z,1006.08
2023-02-16T02:11:11.101Z,1006.05
2023-02-16T02:12:11.086Z,1005.99
2023-02-16T02:13:11.074Z,1005.98
2023-02-16T02:14:11.066Z,1005.92
2023-02-16T02:15:11.053Z,1005.96
2023-02-16T02:16:11.164Z,1006.04
2023-02-16T02:17:11.022Z,1006.00
2023-02-16T02:18:11.018Z,1005.91
2023-02-16T02:19:10.996Z,1005.96
2023-02-16T02:20:10.982Z,1005.96
2023-02-16T02:21:10.971Z,1005.98
2023-02-16T02:22:10.963Z,1005.98
2023-02-16T02:23:10.946Z,1005.97
2023-02-16T02:24:10.932Z,1005.95
2023-02-16T02:25:10.921Z,1005.93
2023-02-16T02:26:10.978Z,1005.94
2023-02-16T02:27:10.892Z,1005.91
2023-02-16T02:28:10.889Z,1005.93
2023-02-16T02:29:10.881Z,1005.96
2023-02-16T02:30:10.928Z,1005.99
2023-02-16T02:31:10.975Z,1005.99
2023-02-16T02:32:10.873Z,1005.98
2023-02-16T02:33:10.827Z,1005.97
2023-02-16T02:34:10.806Z,1005.98
2023-02-16T02:35:10.799Z,1005.95
2023-02-16T02:36:10.779Z,1005.96
2023-02-16T02:37:10.769Z,1005.95
2023-02-16T02:38:10.754Z,1006.00
2023-02-16T02:39:10.746Z,1005.99
2023-02-16T02:40:10.728Z,1006.00
2023-02-16T02:41:10.717Z,1005.92
2023-02-16T02:42:10.743Z,1005.92
2023-02-16T02:43:10.699Z,1005.98
2023-02-16T02:44:10.682Z,1005.95
2023-02-16T02:45:10.668Z,1005.92
2023-02-16T02:46:10.786Z,1005.90
2023-02-16T02:47:10.639Z,1005.90
2023-02-16T02:48:10.631Z,1005.88
2023-02-16T02:49:10.616Z,1005.84
2023-02-16T02:50:10.605Z,1005.91
2023-02-16T02:51:10.599Z,1005.87
2023-02-16T02:52:10.582Z,1005.83
2023-02-16T02:53:10.565Z,1005.89
2023-02-16T02:54:10.554Z,1005.76
2023-02-16T02:55:10.543Z,1005.80
2023-02-16T02:56:10.529Z,1005.83
2023-02-16T02:57:10.515Z,1005.84
2023-02-16T02:58:10.531Z,1005.90
2023-02-16T02:59:10.495Z,1005.92
2023-02-16T03:00:10.480Z,1005.91
2023-02-16T03:01:10.519Z,1005.96
2023-02-16T03:02:10.525Z,1005.98
2023-02-16T03:03:10.440Z,1005.92
2023-02-16T03:04:10.428Z,1005.84
2023-02-16T03:05:10.416Z,1005.77
2023-02-16T03:06:10.402Z,1005.82
2023-02-16T03:07:10.392Z,1005.86
2023-02-16T03:08:10.380Z,1005.84
2023-02-16T03:09:10.365Z,1005.85
2023-02-16T03:10:10.360Z,1005.83
2023-02-16T03:11:10.349Z,1005.80
2023-02-16T03:12:10.329Z,1005.79
2023-02-16T03:13:10.314Z,1005.84
2023-02-16T03:14:10.331Z,1005.84
2023-02-16T03:15:10.289Z,1005.84
2023-02-16T03:16:10.338Z,1005.84
2023-02-16T03:17:10.267Z,1005.85
2023-02-16T03:18:10.256Z,1005.83
2023-02-16T03:19:10.240Z,1005.81
2023-02-16T03:20:10.230Z,1005.84
2023-02-16T03:21:10.216Z,1005.87
2023-02-16T03:22:10.200Z,1005.84
2023-02-16T03:23:10.187Z,1005.82
2023-02-16T03:24:10.189Z,1005.80
2023-02-16T03:25:10.162Z,1005.81
2023-02-16T03:26:10.148Z,1005.83
2023-02-16T03:27:10.146Z,1005.83
2023-02-16T03:28:10.122Z,1005.86
2023-02-16T03:29:10.107Z,1005.84
2023-02-16T03:30:10.194Z,1005.84
2023-02-16T03:31:10.170Z,1005.85
2023-02-16T03:32:10.138Z,1005.94
2023-02-16T03:33:10.057Z,1005.82
2023-02-16T03:34:10.045Z,1005.88
2023-02-16T03:35:10.033Z,1005.87
2023-02-16T03:36:10.018Z,1005.87
2023-02-16T03:37:10.007Z,1005.82
2023-02-16T03:38:09.997Z,1005.85
2023-02-16T03:39:09.981Z,1005.85
2023-02-16T03:40:09.999Z,1005.85
2023-02-16T03:41:09.956Z,1005.83
2023-02-16T03:42:09.944Z,1005.84
2023-02-16T03:43:09.935Z,1005.78
2023-02-16T03:44:09.926Z,1005.80
2023-02-16T03:45:09.938Z,1005.81
2023-02-16T03:46:09.971Z,1005.83
2023-02-16T03:47:09.878Z,1005.81
2023-02-16T03:48:09.867Z,1005.83
2023-02-16T03:49:09.858Z,1005.81
2023-02-16T03:50:09.842Z,1005.80
2023-02-16T03:51:09.832Z,1005.81
2023-02-16T03:52:09.821Z,1005.79
2023-02-16T03:53:09.807Z,1005.86
2023-02-16T03:54:09.793Z,1005.85
2023-02-16T03:55:09.783Z,1005.84
2023-02-16T03:56:09.776Z,1005.88
2023-02-16T03:57:09.765Z,1005.85
2023-02-16T03:58:09.743Z,1005.85
2023-02-16T03:59:09.758Z,1005.80
2023-02-16T04:00:09.746Z,1005.80
2023-02-16T04:01:09.711Z,1005.82
2023-02-16T04:02:09.790Z,1005.82
2023-02-16T04:03:09.680Z,1005.85
2023-02-16T04:04:09.743Z,1005.89
2023-02-16T04:05:09.659Z,1005.91
2023-02-16T04:06:09.644Z,1005.89
2023-02-16T04:07:09.629Z,1005.84
2023-02-16T04:08:09.619Z,1005.85
2023-02-16T04:09:09.606Z,1005.87
2023-02-16T04:10:09.600Z,1005.86
2023-02-16T04:11:09.580Z,1005.77
2023-02-16T04:12:09.568Z,1005.78
2023-02-16T04:13:09.555Z,1005.72
2023-02-16T04:14:09.542Z,1005.74
2023-02-16T04:15:09.530Z,1005.78
2023-02-16T04:16:09.607Z,1005.83
2023-02-16T04:17:09.512Z,1005.77
2023-02-16T04:18:09.532Z,1005.82
2023-02-16T04:19:09.479Z,1005.84
2023-02-16T04:20:09.471Z,1005.82
2023-02-16T04:21:09.455Z,1005.85
2023-02-16T04:22:09.454Z,1005.83
2023-02-16T04:23:09.435Z,1005.81
2023-02-16T04:24:09.422Z,1005.81
2023-02-16T04:25:09.406Z,1005.80
2023-02-16T04:26:09.392Z,1005.81
2023-02-16T04:27:09.385Z,1005.89
2023-02-16T04:28:09.380Z,1005.88
2023-02-16T04:29:09.353Z,1005.82
2023-02-16T04:30:09.359Z,1005.80
2023-02-16T04:31:09.499Z,1005.88
2023-02-16T04:32:09.578Z,1005.84
2023-02-16T04:33:09.304Z,1005.82
2023-02-16T04:34:09.319Z,1005.89
2023-02-16T04:35:09.289Z,1005.85
2023-02-16T04:36:09.263Z,1005.90
2023-02-16T04:37:09.255Z,1005.90
2023-02-16T04:38:09.237Z,1005.85
2023-02-16T04:39:09.243Z,1005.91
2023-02-16T04:40:09.214Z,1005.88
2023-02-16T04:41:09.198Z,1005.91
2023-02-16T04:42:09.186Z,1005.85
2023-02-16T04:43:09.172Z,1005.85
2023-02-16T04:44:09.163Z,1005.83
2023-02-16T04:45:09.170Z,1005.75
2023-02-16T04:46:09.151Z,1005.83
2023-02-16T04:47:09.122Z,1005.85
2023-02-16T04:48:09.114Z,1005.89
2023-02-16T04:49:09.099Z,1005.89
2023-02-16T04:50:09.124Z,1005.89
2023-02-16T04:51:09.080Z,1005.82
2023-02-16T04:52:09.062Z,1005.88
2023-02-16T04:53:09.046Z,1005.90
2023-02-16T04:54:09.049Z,1005.89
2023-02-16T04:55:09.021Z,1005.90
2023-02-16T04:56:09.018Z,1005.87
2023-02-16T04:57:08.997Z,1005.93
2023-02-16T04:58:08.984Z,1005.94
2023-02-16T05:00:08.962Z,1005.84
2023-02-16T05:01:09.026Z,1005.78
2023-02-16T05:02:08.937Z,1005.78
2023-02-16T05:03:08.920Z,1005.77
2023-02-16T05:04:08.945Z,1005.79
2023-02-16T05:05:08.899Z,1005.78
2023-02-16T05:06:08.913Z,1005.82
2023-02-16T05:07:08.875Z,1005.80
2023-02-16T05:08:08.862Z,1005.82
2023-02-16T05:09:08.858Z,1005.80
2023-02-16T05:10:08.843Z,1005.88
2023-02-16T05:11:08.827Z,1005.86
2023-02-16T05:12:08.814Z,1005.93
2023-02-16T05:13:08.795Z,1005.95
2023-02-16T05:14:08.784Z,1005.92
2023-02-16T05:15:08.768Z,1005.88
2023-02-16T05:16:08.790Z,1005.83
2023-02-16T05:17:08.744Z,1005.87
2023-02-16T05:18:08.732Z,1005.81
2023-02-16T05:19:08.718Z,1005.80
2023-02-16T05:20:08.707Z,1005.84
2023-02-16T05:21:08.694Z,1005.87
2023-02-16T05:22:08.724Z,1005.90
2023-02-16T05:23:08.668Z,1005.89
2023-02-16T05:24:08.666Z,1005.88
2023-02-16T05:25:08.653Z,1005.87
2023-02-16T05:26:08.659Z,1005.88
2023-02-16T05:27:08.619Z,1005.89
2023-02-16T05:28:08.691Z,1005.90
2023-02-16T05:29:08.596Z,1005.84
2023-02-16T05:30:08.600Z,1005.87
2023-02-16T05:31:08.727Z,1005.92
2023-02-16T05:32:08.617Z,1005.94
2023-02-16T05:33:08.549Z,1005.95
2023-02-16T05:34:08.531Z,1005.97
2023-02-16T05:35:08.516Z,1005.93
2023-02-16T05:36:08.508Z,1005.94
2023-02-16T05:37:08.492Z,1005.99
2023-02-16T05:38:08.507Z,1005.95
2023-02-16T05:39:08.468Z,1005.99
2023-02-16T05:40:08.458Z,1005.98
2023-02-16T05:41:08.445Z,1006.05
2023-02-16T05:42:08.447Z,1006.02
2023-02-16T05:43:08.424Z,1006.07
2023-02-16T05:44:08.414Z,1006.04
2023-02-16T05:45:08.408Z,1006.06
2023-02-16T05:46:08.464Z,1006.04
2023-02-16T05:47:08.372Z,1006.10
2023-02-16T05:48:08.362Z,1006.04
2023-02-16T05:49:08.346Z,1006.04
2023-02-16T05:50:08.336Z,1006.00
2023-02-16T05:51:08.330Z,1005.99
2023-02-16T05:52:08.320Z,1006.00
2023-02-16T05:53:08.297Z,1005.99
2023-02-16T05:54:08.312Z,1006.04
2023-02-16T05:55:08.277Z,1005.96
2023-02-16T05:56:08.261Z,1005.99
2023-02-16T05:57:08.248Z,1005.99
2023-02-16T05:58:08.256Z,1006.01
2023-02-16T05:59:08.223Z,1006.05
2023-02-16T06:00:08.212Z,1006.01
2023-02-16T06:01:08.201Z,1006.06
2023-02-16T06:02:08.186Z,1006.06
2023-02-16T06:03:08.182Z,1006.07
2023-02-16T06:04:08.223Z,1006.07
2023-02-16T06:05:08.148Z,1006.07
2023-02-16T06:06:08.137Z,1006.06
2023-02-16T06:07:08.131Z,1006.18
2023-02-16T06:08:08.146Z,1006.15
2023-02-16T06:09:08.104Z,1006.16
2023-02-16T06:10:08.112Z,1006.18
2023-02-16T06:11:08.072Z,1006.18
2023-02-16T06:12:08.072Z,1006.18
2023-02-16T06:13:08.051Z,1006.25
2023-02-16T06:14:08.043Z,1006.20
2023-02-16T06:15:08.023Z,1006.23
2023-02-16T06:16:08.135Z,1006.18
2023-02-16T06:17:07.995Z,1006.16
2023-02-16T06:18:08.009Z,1006.22
2023-02-16T06:19:07.996Z,1006.16
2023-02-16T06:20:07.960Z,1006.12
2023-02-16T06:21:07.947Z,1006.09
2023-02-16T06:22:07.936Z,1006.11
2023-02-16T06:23:07.920Z,1006.10
2023-02-16T06:24:07.910Z,1006.12
2023-02-16T06:25:07.897Z,1006.12
2023-02-16T06:26:07.910Z,1006.13
2023-02-16T06:27:07.875Z,1006.13
2023-02-16T06:28:07.859Z,1006.13
2023-02-16T06:29:07.851Z,1006.05
2023-02-16T06:30:07.864Z,1006.14
2023-02-16T06:31:08.310Z,1006.08
2023-02-16T06:32:07.956Z,1006.10
2023-02-16T06:33:07.794Z,1006.15
2023-02-16T06:34:07.793Z,1006.19
2023-02-16T06:35:07.770Z,1006.16
2023-02-16T06:36:07.768Z,1006.16
2023-02-16T06:37:07.746Z,1006.16
2023-02-16T06:38:07.732Z,1006.10
2023-02-16T06:39:07.717Z,1006.10
2023-02-16T06:40:07.707Z,1006.13
2023-02-16T06:41:07.706Z,1006.14
2023-02-16T06:42:07.868Z,1006.17
2023-02-16T06:43:07.666Z,1006.13
2023-02-16T06:44:07.658Z,1006.15
2023-02-16T06:45:07.642Z,1006.11
2023-02-16T06:46:07.642Z,1006.06
2023-02-16T06:47:41.280Z,1006.13
2023-02-16T06:48:41.241Z,1006.13
2023-02-16T06:49:41.227Z,1006.18
2023-02-16T06:50:41.218Z,1006.21
2023-02-16T06:51:41.203Z,1006.16
2023-02-16T06:52:41.189Z,1006.11
2023-02-16T06:53:41.184Z,1006.21
2023-02-16T06:54:41.170Z,1006.15
2023-02-16T06:55:41.164Z,1006.16
2023-02-16T06:56:41.153Z,1006.16
2023-02-16T06:57:41.268Z,1006.13
2023-02-16T06:58:41.119Z,1006.11
2023-02-16T06:59:41.100Z,1006.09
2023-02-16T07:00:41.134Z,1006.10
2023-02-16T07:01:42.481Z,1006.11
2023-02-16T07:02:41.063Z,1006.06
2023-02-16T07:03:47.073Z,1006.07
2023-02-16T07:04:41.058Z,1006.14
2023-02-16T07:05:41.041Z,1006.13
2023-02-16T07:06:41.018Z,1006.14
2023-02-16T07:07:40.998Z,1006.18
2023-02-16T07:08:40.992Z,1006.17
2023-02-16T07:09:40.978Z,1006.18
2023-02-16T07:10:49.759Z,1006.13
2023-02-16T07:11:40.948Z,1006.17
2023-02-16T07:12:40.938Z,1006.21
2023-02-16T07:13:40.956Z,1006.21
2023-02-16T07:14:43.142Z,1006.21
2023-02-16T07:15:40.900Z,1006.21
2023-02-16T07:16:40.961Z,1006.20
2023-02-16T07:17:40.872Z,1006.27
2023-02-16T07:18:40.865Z,1006.19
2023-02-16T07:19:40.850Z,1006.18
2023-02-16T07:20:40.839Z,1006.17
2023-02-16T07:21:40.821Z,1006.22
2023-02-16T07:22:40.808Z,1006.14
2023-02-16T07:23:40.798Z,1006.18
2023-02-16T07:24:40.787Z,1006.13
2023-02-16T07:25:40.768Z,1006.11
2023-02-16T07:26:40.760Z,1006.16
2023-02-16T07:27:40.745Z,1006.18
2023-02-16T07:28:40.734Z,1006.22
2023-02-16T07:29:40.752Z,1006.18
2023-02-16T07:30:40.717Z,1006.19
2023-02-16T07:31:40.790Z,1006.22
2023-02-16T07:32:40.686Z,1006.23
2023-02-16T07:33:40.667Z,1006.27
2023-02-16T07:34:40.658Z,1006.22
2023-02-16T07:35:40.642Z,1006.32
2023-02-16T07:36:40.631Z,1006.26
2023-02-16T07:37:40.624Z,1006.27
2023-02-16T07:38:40.611Z,1006.25
2023-02-16T07:39:40.591Z,1006.24
2023-02-16T07:40:40.579Z,1006.24
2023-02-16T07:41:40.575Z,1006.22
2023-02-16T07:42:40.558Z,1006.27
2023-02-16T07:43:40.538Z,1006.30
2023-02-16T07:44:40.529Z,1006.28
2023-02-16T07:45:40.594Z,1006.26
2023-02-16T07:46:40.501Z,1006.25
2023-02-16T07:47:40.491Z,1006.19
2023-02-16T07:48:40.484Z,1006.30
2023-02-16T07:49:40.462Z,1006.30
2023-02-16T07:50:40.453Z,1006.32
2023-02-16T07:51:40.437Z,1006.31
2023-02-16T07:52:40.429Z,1006.30
2023-02-16T07:53:40.410Z,1006.32
2023-02-16T07:54:40.397Z,1006.40
2023-02-16T07:55:40.384Z,1006.34
2023-02-16T07:56:40.391Z,1006.36
2023-02-16T07:57:40.405Z,1006.29
2023-02-16T07:58:40.348Z,1006.28
2023-02-16T07:59:40.339Z,1006.31
2023-02-16T08:00:40.326Z,1006.31
2023-02-16T08:01:40.337Z,1006.34
2023-02-16T08:02:40.494Z,1006.35
2023-02-16T08:03:40.283Z,1006.43
2023-02-16T08:04:40.272Z,1006.44
2023-02-16T08:05:40.259Z,1006.48
2023-02-16T08:06:40.246Z,1006.46
2023-02-16T08:07:40.235Z,1006.49
2023-02-16T08:08:40.223Z,1006.49
2023-02-16T08:09:40.210Z,1006.47
2023-02-16T08:10:40.199Z,1006.46
2023-02-16T08:11:40.185Z,1006.41
2023-02-16T08:12:40.178Z,1006.41
2023-02-16T08:13:40.160Z,1006.42
2023-02-16T08:14:40.155Z,1006.43
2023-02-16T08:15:40.139Z,1006.37
2023-02-16T08:16:40.204Z,1006.45
2023-02-16T08:17:40.226Z,1006.43
2023-02-16T08:18:40.105Z,1006.33
2023-02-16T08:19:40.093Z,1006.36
2023-02-16T08:21:02.830Z,1006.34
2023-02-16T08:21:42.074Z,1006.40
2023-02-16T08:22:40.066Z,1006.35
2023-02-16T08:23:40.045Z,1006.38
2023-02-16T08:24:40.054Z,1006.40
2023-02-16T08:25:40.029Z,1006.43
2023-02-16T08:26:40.022Z,1006.52
2023-02-16T08:27:39.990Z,1006.49
2023-02-16T08:28:39.982Z,1006.54
2023-02-16T08:29:39.966Z,1006.55
2023-02-16T08:30:39.962Z,1006.62
2023-02-16T08:31:40.106Z,1006.62
2023-02-16T08:32:39.931Z,1006.67
2023-02-16T08:33:39.937Z,1006.67
2023-02-16T08:34:42.221Z,1006.76
2023-02-16T08:35:39.892Z,1006.70
2023-02-16T08:36:39.882Z,1006.67
2023-02-16T08:37:39.865Z,1006.68
2023-02-16T08:38:39.856Z,1006.67
2023-02-16T08:39:39.848Z,1006.66
2023-02-16T08:40:39.832Z,1006.63
2023-02-16T08:41:39.815Z,1006.73
2023-02-16T08:42:39.805Z,1006.66
2023-02-16T08:43:39.797Z,1006.69
2023-02-16T08:44:39.937Z,1006.68
2023-02-16T08:45:39.833Z,1006.65
2023-02-16T08:46:39.756Z,1006.62
2023-02-16T08:47:39.737Z,1006.59
2023-02-16T08:48:39.728Z,1006.59
2023-02-16T08:49:39.909Z,1006.62
2023-02-16T08:50:39.701Z,1006.59
2023-02-16T08:51:39.683Z,1006.65
2023-02-16T08:52:39.876Z,1006.60
2023-02-16T08:53:39.657Z,1006.57
2023-02-16T08:54:39.644Z,1006.56
2023-02-16T08:55:39.662Z,1006.55
2023-02-16T08:56:39.640Z,1006.50
2023-02-16T08:57:39.614Z,1006.53
2023-02-16T08:58:39.804Z,1006.53
2023-02-16T08:59:39.576Z,1006.51
2023-02-16T09:00:39.597Z,1006.50
2023-02-16T09:01:39.656Z,1006.48
2023-02-16T09:02:39.672Z,1006.52
2023-02-16T09:03:39.523Z,1006.55
2023-02-16T09:04:39.516Z,1006.54
2023-02-16T09:05:39.530Z,1006.50
2023-02-16T09:06:39.502Z,1006.49
2023-02-16T09:07:39.487Z,1006.47
2023-02-16T09:08:39.463Z,1006.47
2023-02-16T09:09:41.739Z,1006.48
2023-02-16T09:10:39.438Z,1006.51
2023-02-16T09:11:39.435Z,1006.44
2023-02-16T09:12:39.411Z,1006.56
2023-02-16T09:13:39.397Z,1006.55
2023-02-16T09:14:39.385Z,1006.51
2023-02-16T09:15:39.371Z,1006.58
2023-02-16T09:16:39.556Z,1006.51
2023-02-16T09:17:39.346Z,1006.52
2023-02-16T09:18:39.349Z,1006.57
2023-02-16T09:19:39.323Z,1006.56
2023-02-16T09:20:39.309Z,1006.49
2023-02-16T09:21:39.335Z,1006.46
2023-02-16T09:22:39.283Z,1006.44
2023-02-16T09:23:39.271Z,1006.44
2023-02-16T09:24:39.261Z,1006.46
2023-02-16T09:25:39.245Z,1006.44
2023-02-16T09:26:39.232Z,1006.44
2023-02-16T09:27:39.232Z,1006.44
2023-02-16T09:28:39.216Z,1006.43
2023-02-16T09:29:39.193Z,1006.39
2023-02-16T09:30:39.424Z,1006.35
2023-02-16T09:31:39.203Z,1006.34
2023-02-16T09:32:39.156Z,1006.28
2023-02-16T09:33:39.141Z,1006.27
2023-02-16T09:34:39.132Z,1006.31
2023-02-16T09:35:39.116Z,1006.32
2023-02-16T09:36:39.109Z,1006.31
2023-02-16T09:37:39.117Z,1006.36
2023-02-16T09:38:39.079Z,1006.30
2023-02-16T09:39:39.066Z,1006.37
2023-02-16T09:40:39.052Z,1006.36
2023-02-16T09:41:39.043Z,1006.41
2023-02-16T09:42:39.026Z,1006.40
2023-02-16T09:43:39.018Z,1006.43
2023-02-16T09:44:39.000Z,1006.38
2023-02-16T09:45:38.994Z,1006.33
2023-02-16T09:46:39.020Z,1006.28
2023-02-16T09:47:38.976Z,1006.29
2023-02-16T09:48:38.957Z,1006.35
2023-02-16T09:49:38.941Z,1006.33
2023-02-16T09:50:53.293Z,1006.40
2023-02-16T09:51:38.929Z,1006.35
2023-02-16T09:52:38.901Z,1006.37
2023-02-16T09:53:39.021Z,1006.42
2023-02-16T09:54:38.875Z,1006.37
2023-02-16T09:55:38.864Z,1006.35
2023-02-16T09:56:38.853Z,1006.31
2023-02-16T09:57:38.835Z,1006.38
2023-02-16T09:58:38.825Z,1006.39
2023-02-16T09:59:38.811Z,1006.43
2023-02-16T10:00:38.795Z,1006.38
2023-02-16T10:01:38.876Z,1006.30
2023-02-16T10:02:38.799Z,1006.29
2023-02-16T10:03:38.758Z,1006.26
2023-02-16T10:04:38.744Z,1006.29
2023-02-16T10:05:38.734Z,1006.25
2023-02-16T10:06:38.720Z,1006.28
2023-02-16T10:07:38.708Z,1006.33
2023-02-16T10:08:38.695Z,1006.36
2023-02-16T10:09:38.709Z,1006.38
2023-02-16T10:10:40.144Z,1006.32
2023-02-16T10:11:38.704Z,1006.32
2023-02-16T10:12:38.641Z,1006.30
2023-02-16T10:13:38.634Z,1006.33
2023-02-16T10:14:38.617Z,1006.28
2023-02-16T10:15:38.668Z,1006.29
2023-02-16T10:16:38.591Z,1006.30
2023-02-16T10:17:38.584Z,1006.30
2023-02-16T10:18:38.566Z,1006.27
2023-02-16T10:19:38.558Z,1006.22
2023-02-16T10:20:38.559Z,1006.25
2023-02-16T10:21:38.530Z,1006.20
2023-02-16T10:22:38.513Z,1006.21
2023-02-16T10:23:38.504Z,1006.28
2023-02-16T10:24:38.489Z,1006.22
2023-02-16T10:25:38.519Z,1006.31
2023-02-16T10:26:38.472Z,1006.31
2023-02-16T10:27:38.468Z,1006.32
2023-02-16T10:28:38.439Z,1006.26
2023-02-16T10:29:38.428Z,1006.20
2023-02-16T10:30:38.412Z,1006.18
2023-02-16T10:31:38.601Z,1006.20
2023-02-16T10:32:43.659Z,1006.19
2023-02-16T10:33:38.378Z,1006.23
2023-02-16T10:34:38.372Z,1006.15
2023-02-16T10:35:38.356Z,1006.19
2023-02-16T10:36:38.340Z,1006.14
2023-02-16T10:37:38.330Z,1006.12
2023-02-16T10:38:38.331Z,1006.11
2023-02-16T10:39:38.329Z,1006.11
2023-02-16T10:40:38.305Z,1006.13
2023-02-16T10:41:38.305Z,1006.07
2023-02-16T10:42:38.275Z,1006.04
2023-02-16T10:43:38.253Z,1006.06
2023-02-16T10:44:38.243Z,1006.04
2023-02-16T10:45:38.229Z,1006.10
2023-02-16T10:46:38.280Z,1006.09
2023-02-16T10:47:38.207Z,1006.14
2023-02-16T10:48:38.190Z,1006.18
2023-02-16T10:49:38.181Z,1006.23
2023-02-16T10:50:38.163Z,1006.14
2023-02-16T10:51:38.157Z,1006.07
2023-02-16T10:52:38.165Z,1006.08
2023-02-16T10:53:38.132Z,1006.02
2023-02-16T10:54:38.113Z,1005.98
2023-02-16T10:55:38.102Z,1005.99
2023-02-16T10:56:38.088Z,1005.99
2023-02-16T10:57:38.105Z,1006.02
2023-02-16T10:58:38.066Z,1006.06
2023-02-16T10:59:38.052Z,1006.08
2023-02-16T11:00:38.040Z,1006.09
2023-02-16T11:01:38.090Z,1006.11
2023-02-16T11:02:38.015Z,1006.05
2023-02-16T11:03:38.000Z,1006.03
2023-02-16T11:04:38.038Z,1006.03
2023-02-16T11:05:38.014Z,1006.00
2023-02-16T11:06:37.963Z,1005.97
2023-02-16T11:07:37.951Z,1005.98
2023-02-16T11:08:37.937Z,1005.96
2023-02-16T11:09:37.930Z,1005.93
2023-02-16T11:10:37.911Z,1005.95
2023-02-16T11:11:37.901Z,1005.97
2023-02-16T11:12:37.896Z,1005.94
2023-02-16T11:13:38.027Z,1005.92
2023-02-16T11:14:37.860Z,1005.91
2023-02-16T11:15:37.850Z,1005.87
2023-02-16T11:16:37.834Z,1005.88
2023-02-16T11:17:37.822Z,1005.93
2023-02-16T11:18:37.852Z,1006.05
2023-02-16T11:19:37.802Z,1005.94
2023-02-16T11:20:37.784Z,1005.91
2023-02-16T11:21:37.772Z,1005.91
2023-02-16T11:22:37.762Z,1005.92
2023-02-16T11:23:37.748Z,1005.94
2023-02-16T11:24:37.742Z,1005.91
2023-02-16T11:25:37.725Z,1005.88
2023-02-16T11:26:37.709Z,1005.85
2023-02-16T11:27:37.699Z,1005.80
2023-02-16T11:28:37.691Z,1005.80
2023-02-16T11:29:37.711Z,1005.79
2023-02-16T11:30:37.671Z,1005.77
2023-02-16T11:31:37.791Z,1005.78
2023-02-16T11:32:37.634Z,1005.80
2023-02-16T11:33:37.623Z,1005.74
2023-02-16T11:34:37.611Z,1005.68
2023-02-16T11:35:37.598Z,1005.69
2023-02-16T11:36:37.588Z,1005.67
2023-02-16T11:37:37.573Z,1005.67
2023-02-16T11:38:37.560Z,1005.60
2023-02-16T11:39:37.550Z,1005.56
2023-02-16T11:40:37.539Z,1005.51
2023-02-16T11:41:37.522Z,1005.50
2023-02-16T11:42:37.500Z,1005.50
2023-02-16T11:43:37.510Z,1005.49
2023-02-16T11:44:37.475Z,1005.45
2023-02-16T11:45:37.514Z,1005.40
2023-02-16T11:46:37.531Z,1005.44
2023-02-16T11:47:37.443Z,1005.43
2023-02-16T11:48:37.416Z,1005.44
2023-02-16T11:49:37.408Z,1005.43
2023-02-16T11:50:37.389Z,1005.37
2023-02-16T11:51:37.381Z,1005.30
2023-02-16T11:52:37.379Z,1005.38
2023-02-16T11:53:37.359Z,1005.32
2023-02-16T11:54:37.335Z,1005.31
2023-02-16T11:55:37.323Z,1005.35
2023-02-16T11:56:37.314Z,1005.45
2023-02-16T11:57:37.312Z,1005.43
2023-02-16T11:58:37.284Z,1005.38
2023-02-16T11:59:37.309Z,1005.40
2023-02-16T12:00:37.258Z,1005.36
2023-02-16T12:01:37.271Z,1005.38
2023-02-16T12:02:37.230Z,1005.38
2023-02-16T12:03:37.280Z,1005.32
2023-02-16T12:04:37.204Z,1005.33
2023-02-16T12:05:37.256Z,1005.39
2023-02-16T12:06:37.179Z,1005.41
2023-02-16T12:07:37.165Z,1005.35